createdAt,value
2022-10-01T00:02:01.950Z,14.15
2022-10-01T00:04:29.034Z,11.57
2022-10-01T00:06:59.128Z,12.30
2022-10-01T00:09:26.912Z,11.77
2022-10-01T00:11:53.893Z,13.20
2022-10-01T00:14:20.900Z,12.30
2022-10-01T00:16:47.873Z,12.73
2022-10-01T00:19:15.563Z,13.00
2022-10-01T00:21:42.664Z,14.77
2022-10-01T00:24:12.983Z,14.27
2022-10-01T00:26:40.443Z,14.93
2022-10-01T00:29:13.629Z,13.82
2022-10-01T00:31:40.920Z,13.77
2022-10-01T00:34:09.239Z,14.37
2022-10-01T00:36:36.129Z,16.10
2022-10-01T00:39:03.266Z,15.25
2022-10-01T00:41:33.963Z,16.33
2022-10-01T00:44:32.053Z,15.05
2022-10-01T00:47:23.672Z,15.07
2022-10-01T00:49:58.668Z,16.25
2022-10-01T00:52:31.836Z,15.65
2022-10-01T00:55:05.604Z,16.05
2022-10-01T00:57:34.454Z,14.55
2022-10-01T01:00:06.304Z,14.10
2022-10-01T01:02:33.539Z,14.80
2022-10-01T01:05:01.318Z,14.18
2022-10-01T01:07:31.551Z,12.23
2022-10-01T01:09:59.752Z,11.55
2022-10-01T01:13:34.340Z,12.03
2022-10-01T01:16:12.949Z,12.20
2022-10-01T01:19:04.059Z,12.45
2022-10-01T01:21:34.621Z,12.55
2022-10-01T01:24:23.276Z,11.23
2022-10-01T01:27:16.228Z,10.93
2022-10-01T01:30:05.261Z,12.27
2022-10-01T01:33:03.083Z,10.90
2022-10-01T01:35:38.055Z,11.48
2022-10-01T01:38:14.154Z,9.50
2022-10-01T01:40:44.708Z,10.27
2022-10-01T01:43:20.431Z,9.00
2022-10-01T01:45:52.307Z,9.70
2022-10-01T01:48:19.221Z,9.50
2022-10-01T01:51:18.753Z,8.88
2022-10-01T01:53:45.671Z,9.53
2022-10-01T01:56:12.620Z,9.65
2022-10-01T01:58:39.837Z,10.50
2022-10-01T02:01:06.908Z,9.18
2022-10-01T02:03:35.308Z,7.90
2022-10-01T02:06:49.746Z,9.23
2022-10-01T02:09:30.901Z,9.77
2022-10-01T02:12:24.264Z,8.95
2022-10-01T02:15:17.140Z,8.55
2022-10-01T02:18:53.637Z,7.68
2022-10-01T02:21:30.730Z,7.87
2022-10-01T02:24:30.487Z,8.07
2022-10-01T02:27:01.101Z,7.25
2022-10-01T02:29:29.487Z,6.88
2022-10-01T02:31:58.072Z,6.65
2022-10-01T02:34:30.291Z,7.67
2022-10-01T02:37:00.936Z,6.60
2022-10-01T02:39:30.901Z,7.07
2022-10-01T02:42:01.012Z,6.13
2022-10-01T02:44:38.049Z,6.32
2022-10-01T02:47:09.935Z,5.53
2022-10-01T02:49:41.263Z,5.95
2022-10-01T02:52:52.958Z,5.00
2022-10-01T02:55:28.665Z,4.30
2022-10-01T02:57:57.257Z,5.07
2022-10-01T03:00:26.913Z,5.13
2022-10-01T03:02:54.143Z,4.38
2022-10-01T03:05:21.788Z,4.63
2022-10-01T03:07:49.124Z,4.80
2022-10-01T03:10:17.138Z,4.65
2022-10-01T03:12:46.508Z,5.60
2022-10-01T03:15:16.348Z,5.45
2022-10-01T03:17:43.581Z,5.32
2022-10-01T03:20:12.118Z,5.80
2022-10-01T03:22:39.401Z,5.03
2022-10-01T03:25:06.688Z,4.40
2022-10-01T03:27:33.568Z,6.10
2022-10-01T03:30:00.445Z,5.65
2022-10-01T03:32:27.660Z,5.78
2022-10-01T03:34:54.582Z,6.05
2022-10-01T03:37:21.475Z,5.77
2022-10-01T03:39:48.350Z,6.60
2022-10-01T03:42:16.576Z,7.70
2022-10-01T03:44:43.979Z,7.20
2022-10-01T03:47:11.522Z,6.90
2022-10-01T03:49:38.566Z,7.53
2022-10-01T03:52:09.142Z,7.30
2022-10-01T03:54:35.999Z,8.07
2022-10-01T03:57:02.963Z,8.40
2022-10-01T03:59:29.858Z,7.63
2022-10-01T04:01:56.818Z,7.13
2022-10-01T04:04:23.816Z,8.35
2022-10-01T04:06:50.711Z,7.85
2022-10-01T04:09:17.578Z,8.52
2022-10-01T04:11:44.556Z,8.38
2022-10-01T04:14:11.458Z,8.17
2022-10-01T04:16:38.445Z,8.60
2022-10-01T04:19:05.758Z,9.25
2022-10-01T04:21:33.061Z,9.80
2022-10-01T04:24:00.995Z,8.40
2022-10-01T04:26:27.925Z,10.40
2022-10-01T04:28:54.795Z,10.52
2022-10-01T04:31:24.524Z,12.38
2022-10-01T04:33:57.367Z,10.32
2022-10-01T04:36:25.869Z,9.88
2022-10-01T04:39:01.742Z,11.93
2022-10-01T04:41:30.891Z,12.82
2022-10-01T04:43:59.656Z,11.88
2022-10-01T04:46:27.431Z,13.02
2022-10-01T04:48:54.350Z,13.15
2022-10-01T04:51:21.314Z,12.93
2022-10-01T04:53:48.228Z,11.98
2022-10-01T04:56:15.091Z,13.60
2022-10-01T04:58:42.176Z,11.43
2022-10-01T05:01:09.275Z,14.45
2022-10-01T05:03:36.183Z,14.67
2022-10-01T05:06:03.641Z,14.25
2022-10-01T05:08:31.109Z,13.35
2022-10-01T05:11:00.375Z,16.42
2022-10-01T05:13:29.885Z,14.13
2022-10-01T05:15:57.008Z,16.10
2022-10-01T05:18:24.036Z,15.95
2022-10-01T05:20:50.906Z,17.45
2022-10-01T05:23:17.803Z,16.92
2022-10-01T05:25:46.843Z,14.10
2022-10-01T05:28:17.133Z,13.73
2022-10-01T05:30:46.860Z,18.08
2022-10-01T05:33:13.763Z,13.75
2022-10-01T05:35:41.905Z,14.50
2022-10-01T05:38:08.833Z,14.13
2022-10-01T05:40:35.959Z,15.23
2022-10-01T05:43:04.218Z,14.98
2022-10-01T05:45:32.536Z,17.70
2022-10-01T05:48:02.808Z,17.48
2022-10-01T05:50:33.652Z,16.70
2022-10-01T05:53:02.043Z,17.67
2022-10-01T05:55:34.404Z,14.75
2022-10-01T05:58:04.750Z,13.60
2022-10-01T06:00:33.568Z,16.58
2022-10-01T06:03:02.223Z,12.85
2022-10-01T06:05:31.275Z,16.43
2022-10-01T06:07:58.339Z,16.92
2022-10-01T06:10:28.090Z,14.23
2022-10-01T06:13:01.122Z,18.73
2022-10-01T06:15:29.274Z,19.35
2022-10-01T06:17:56.464Z,16.37
2022-10-01T06:20:23.992Z,14.10
2022-10-01T06:22:56.983Z,16.85
2022-10-01T06:25:25.172Z,14.27
2022-10-01T06:27:58.374Z,14.20
2022-10-01T06:30:31.643Z,15.17
2022-10-01T06:33:08.916Z,15.73
2022-10-01T06:35:41.067Z,16.83
2022-10-01T06:38:09.328Z,14.73
2022-10-01T06:40:37.032Z,16.73
2022-10-01T06:43:05.738Z,14.60
2022-10-01T06:45:32.704Z,17.25
2022-10-01T06:48:02.929Z,16.35
2022-10-01T06:50:31.714Z,21.55
2022-10-01T06:52:59.936Z,15.38
2022-10-01T06:55:31.039Z,16.43
2022-10-01T06:58:07.638Z,15.13
2022-10-01T07:00:38.900Z,15.20
2022-10-01T07:03:10.886Z,16.98
2022-10-01T07:05:39.327Z,14.40
2022-10-01T07:08:07.467Z,15.80
2022-10-01T07:10:35.380Z,16.08
2022-10-01T07:13:20.781Z,16.17
2022-10-01T07:15:48.119Z,16.63
2022-10-01T07:18:15.136Z,14.73
2022-10-01T07:20:42.280Z,16.93
2022-10-01T07:23:13.913Z,17.08
2022-10-01T07:25:42.246Z,19.08
2022-10-01T07:28:17.708Z,18.80
2022-10-01T07:31:07.112Z,18.02
2022-10-01T07:33:34.620Z,18.03
2022-10-01T07:36:04.908Z,15.00
2022-10-01T07:38:33.389Z,16.05
2022-10-01T07:41:02.765Z,14.93
2022-10-01T07:43:31.425Z,16.90
2022-10-01T07:46:00.126Z,14.63
2022-10-01T07:48:28.200Z,13.18
2022-10-01T07:50:55.141Z,13.15
2022-10-01T07:53:25.286Z,11.57
2022-10-01T07:55:52.163Z,12.70
2022-10-01T07:58:23.655Z,10.67
2022-10-01T08:00:52.337Z,11.88
2022-10-01T08:03:19.234Z,11.02
2022-10-01T08:05:46.698Z,11.57
2022-10-01T08:08:13.592Z,10.63
2022-10-01T08:10:41.212Z,10.30
2022-10-01T08:13:15.747Z,10.55
2022-10-01T08:15:46.174Z,8.70
2022-10-01T08:18:14.158Z,9.20
2022-10-01T08:20:41.327Z,7.68
2022-10-01T08:23:11.291Z,9.23
2022-10-01T08:25:39.708Z,8.77
2022-10-01T08:28:07.858Z,8.30
2022-10-01T08:30:39.704Z,8.55
2022-10-01T08:33:08.039Z,7.93
2022-10-01T08:35:35.005Z,8.67
2022-10-01T08:38:06.642Z,7.13
2022-10-01T08:40:39.233Z,7.55
2022-10-01T08:43:09.424Z,7.28
2022-10-01T08:45:45.017Z,6.68
2022-10-01T08:48:30.941Z,7.10
2022-10-01T08:51:28.027Z,6.82
2022-10-01T08:54:13.403Z,6.05
2022-10-01T08:56:46.226Z,6.10
2022-10-01T08:59:29.942Z,6.20
2022-10-01T09:01:59.047Z,5.53
2022-10-01T09:04:27.634Z,4.57
2022-10-01T09:07:16.673Z,4.43
2022-10-01T09:10:13.254Z,3.72
2022-10-01T09:13:04.310Z,3.90
2022-10-01T09:15:52.935Z,4.33
2022-10-01T09:18:57.236Z,3.80
2022-10-01T09:21:56.045Z,4.28
2022-10-01T09:24:38.243Z,4.15
2022-10-01T09:27:27.012Z,4.00
2022-10-01T09:30:04.124Z,3.73
2022-10-01T09:32:38.686Z,3.75
2022-10-01T09:35:28.888Z,3.40
2022-10-01T09:38:07.871Z,3.88
2022-10-01T09:40:52.845Z,3.53
2022-10-01T09:43:21.865Z,3.70
2022-10-01T09:45:49.934Z,3.42
2022-10-01T09:49:01.382Z,2.92
2022-10-01T09:51:46.282Z,3.40
2022-10-01T09:54:31.061Z,3.42
2022-10-01T09:57:11.032Z,3.23
2022-10-01T10:00:12.144Z,2.60
2022-10-01T10:02:49.164Z,3.22
2022-10-01T10:05:19.804Z,2.55
2022-10-01T10:08:00.296Z,3.42
2022-10-01T10:10:39.391Z,3.47
2022-10-01T10:13:35.230Z,2.50
2022-10-01T10:16:10.738Z,2.67
2022-10-01T10:18:40.311Z,2.80
2022-10-01T10:21:19.352Z,3.05
2022-10-01T10:23:59.410Z,2.30
2022-10-01T10:26:39.207Z,2.42
2022-10-01T10:29:24.574Z,3.08
2022-10-01T10:31:51.787Z,2.40
2022-10-01T10:34:31.972Z,2.70
2022-10-01T10:37:04.940Z,2.83
2022-10-01T10:39:38.920Z,3.10
2022-10-01T10:42:07.093Z,2.90
2022-10-01T10:44:39.626Z,2.80
2022-10-01T10:47:15.569Z,2.53
2022-10-01T10:50:00.050Z,2.97
2022-10-01T10:52:36.953Z,3.10
2022-10-01T10:55:25.916Z,2.72
2022-10-01T10:57:57.601Z,2.42
2022-10-01T11:00:26.447Z,2.30
2022-10-01T11:03:04.529Z,2.27
2022-10-01T11:05:41.360Z,2.60
2022-10-01T11:08:20.663Z,2.78
2022-10-01T11:11:27.925Z,2.17
2022-10-01T11:14:09.513Z,2.10
2022-10-01T11:17:26.096Z,2.37
2022-10-01T11:20:37.402Z,2.50
2022-10-01T11:23:18.536Z,2.13
2022-10-01T11:26:19.893Z,2.92
2022-10-01T11:29:16.739Z,2.28
2022-10-01T11:32:11.004Z,2.90
2022-10-01T11:35:06.342Z,3.20
2022-10-01T11:38:17.649Z,2.45
2022-10-01T11:40:54.599Z,2.40
2022-10-01T11:43:38.825Z,2.83
2022-10-01T11:46:27.078Z,3.13
2022-10-01T11:49:41.817Z,2.47
2022-10-01T11:52:19.420Z,2.50
2022-10-01T11:55:36.707Z,2.03
2022-10-01T11:58:43.474Z,2.08
2022-10-01T12:01:18.688Z,2.57
2022-10-01T12:03:57.523Z,3.03
2022-10-01T12:06:33.902Z,1.90
2022-10-01T12:10:23.776Z,2.45
2022-10-01T12:13:23.148Z,2.00
2022-10-01T12:16:13.548Z,2.57
2022-10-01T12:18:54.568Z,2.72
2022-10-01T12:21:33.859Z,2.00
2022-10-01T12:24:14.364Z,2.75
2022-10-01T12:27:14.950Z,2.55
2022-10-01T12:30:21.988Z,2.53
2022-10-01T12:33:14.394Z,2.10
2022-10-01T12:36:25.046Z,2.97
2022-10-01T12:39:07.915Z,2.80
2022-10-01T12:42:15.045Z,2.70
2022-10-01T12:45:03.729Z,2.00
2022-10-01T12:47:46.507Z,2.38
2022-10-01T12:50:47.227Z,2.22
2022-10-01T12:53:38.991Z,3.20
2022-10-01T12:56:33.918Z,2.40
2022-10-01T12:59:36.660Z,2.37
2022-10-01T13:02:55.083Z,2.30
2022-10-01T13:06:09.339Z,2.47
2022-10-01T13:08:52.280Z,2.15
2022-10-01T13:11:50.958Z,2.55
2022-10-01T13:14:19.350Z,2.30
2022-10-01T13:17:19.232Z,2.75
2022-10-01T13:20:23.589Z,2.50
2022-10-01T13:23:11.720Z,2.70
2022-10-01T13:26:19.856Z,2.88
2022-10-01T13:29:27.767Z,2.47
2022-10-01T13:31:59.432Z,2.38
2022-10-01T13:34:38.641Z,2.20
2022-10-01T13:37:29.658Z,2.20
2022-10-01T13:39:58.499Z,2.47
2022-10-01T13:42:37.327Z,2.40
2022-10-01T13:45:08.571Z,2.63
2022-10-01T13:47:40.860Z,2.20
2022-10-01T13:50:27.781Z,2.22
2022-10-01T13:53:15.198Z,2.85
2022-10-01T13:55:45.477Z,2.00
2022-10-01T13:58:41.228Z,2.85
2022-10-01T14:01:38.280Z,2.53
2022-10-01T14:04:38.671Z,1.92
2022-10-01T14:07:24.119Z,2.45
2022-10-01T14:09:56.000Z,2.50
2022-10-01T14:12:52.104Z,2.28
2022-10-01T14:15:43.216Z,2.05
2022-10-01T14:18:17.692Z,2.45
2022-10-01T14:21:16.269Z,2.17
2022-10-01T14:24:05.276Z,2.30
2022-10-01T14:26:39.889Z,2.08
2022-10-01T14:29:29.719Z,2.42
2022-10-01T14:32:33.612Z,2.45
2022-10-01T14:35:20.831Z,2.17
2022-10-01T14:37:47.835Z,2.50
2022-10-01T14:40:21.087Z,2.25
2022-10-01T14:43:02.959Z,2.72
2022-10-01T14:45:30.346Z,2.95
2022-10-01T14:48:04.570Z,2.70
2022-10-01T14:50:36.854Z,3.27
2022-10-01T14:53:04.521Z,2.50
2022-10-01T14:55:31.872Z,2.67
2022-10-01T14:57:59.122Z,2.63
2022-10-01T15:00:32.307Z,2.88
2022-10-01T15:03:13.180Z,2.27
2022-10-01T15:05:40.083Z,2.85
2022-10-01T15:08:39.324Z,2.42
2022-10-01T15:11:30.772Z,2.38
2022-10-01T15:14:05.131Z,3.13
2022-10-01T15:16:35.451Z,2.30
2022-10-01T15:19:19.560Z,2.78
2022-10-01T15:21:51.136Z,2.75
2022-10-01T15:24:41.129Z,2.65
2022-10-01T15:27:13.806Z,2.55
2022-10-01T15:29:42.624Z,2.50
2022-10-01T15:32:15.042Z,2.80
2022-10-01T15:34:47.643Z,2.28
2022-10-01T15:37:31.276Z,2.20
2022-10-01T15:39:59.160Z,2.78
2022-10-01T15:42:32.733Z,2.30
2022-10-01T15:45:08.719Z,2.45
2022-10-01T15:47:51.790Z,2.10
2022-10-01T15:50:26.429Z,2.67
2022-10-01T15:53:16.504Z,1.88
2022-10-01T15:55:50.543Z,2.20
2022-10-01T15:58:23.271Z,2.67
2022-10-01T16:01:17.713Z,2.25
2022-10-01T16:04:00.812Z,2.35
2022-10-01T16:06:40.054Z,2.38
2022-10-01T16:09:19.940Z,2.40
2022-10-01T16:12:09.785Z,2.45
2022-10-01T16:14:44.625Z,1.63
2022-10-01T16:17:17.600Z,2.20
2022-10-01T16:19:52.922Z,2.60
2022-10-01T16:22:19.788Z,2.00
2022-10-01T16:24:49.454Z,3.10
2022-10-01T16:27:18.865Z,2.85
2022-10-01T16:30:05.781Z,2.88
2022-10-01T16:32:33.889Z,2.00
2022-10-01T16:35:17.030Z,2.50
2022-10-01T16:37:45.519Z,2.80
2022-10-01T16:40:16.237Z,2.17
2022-10-01T16:42:44.978Z,2.35
2022-10-01T16:45:24.541Z,2.33
2022-10-01T16:47:53.648Z,2.00
2022-10-01T16:50:22.498Z,2.30
2022-10-01T16:52:54.122Z,2.63
2022-10-01T16:55:32.350Z,3.00
2022-10-01T16:57:59.232Z,2.40
2022-10-01T17:00:27.760Z,2.47
2022-10-01T17:02:56.215Z,2.15
2022-10-01T17:05:35.526Z,2.20
2022-10-01T17:08:05.101Z,2.15
2022-10-01T17:10:47.991Z,2.25
2022-10-01T17:13:16.044Z,2.20
2022-10-01T17:15:43.610Z,2.50
2022-10-01T17:18:10.875Z,2.10
2022-10-01T17:20:38.154Z,2.75
2022-10-01T17:23:06.012Z,2.05
2022-10-01T17:25:38.276Z,2.17
2022-10-01T17:28:13.823Z,2.03
2022-10-01T17:30:46.429Z,2.00
2022-10-01T17:33:15.392Z,2.28
2022-10-01T17:35:44.954Z,2.17
2022-10-01T17:38:12.869Z,2.10
2022-10-01T17:40:41.604Z,1.75
2022-10-01T17:43:12.501Z,2.28
2022-10-01T17:45:39.651Z,2.55
2022-10-01T17:48:06.627Z,2.33
2022-10-01T17:50:33.575Z,2.17
2022-10-01T17:53:01.317Z,2.47
2022-10-01T17:55:28.487Z,2.63
2022-10-01T17:57:55.787Z,2.63
2022-10-01T18:00:22.676Z,3.22
2022-10-01T18:02:49.651Z,4.20
2022-10-01T18:05:17.147Z,4.97
2022-10-01T18:07:44.139Z,4.35
2022-10-01T18:10:13.377Z,4.18
2022-10-01T18:12:41.085Z,4.25
2022-10-01T18:15:08.896Z,3.70
2022-10-01T18:17:42.935Z,4.03
2022-10-01T18:20:10.639Z,4.00
2022-10-01T18:22:37.967Z,4.13
2022-10-01T18:25:08.251Z,3.45
2022-10-01T18:27:35.306Z,4.07
2022-10-01T18:30:02.338Z,3.75
2022-10-01T18:32:40.175Z,3.35
2022-10-01T18:35:25.488Z,3.95
2022-10-01T18:37:56.248Z,3.65
2022-10-01T18:40:42.887Z,3.67
2022-10-01T18:43:18.112Z,4.78
2022-10-01T18:46:35.863Z,4.35
2022-10-01T18:49:27.124Z,4.93
2022-10-01T18:52:24.299Z,5.07
2022-10-01T18:55:21.299Z,5.50
2022-10-01T18:58:19.721Z,4.78
2022-10-01T19:01:33.218Z,5.72
2022-10-01T19:04:37.267Z,5.38
2022-10-01T19:07:56.504Z,4.55
2022-10-01T19:10:50.739Z,3.90
2022-10-01T19:13:54.484Z,4.13
2022-10-01T19:17:12.735Z,4.00
2022-10-01T19:20:14.948Z,4.15
2022-10-01T19:22:53.723Z,4.45
2022-10-01T19:25:43.611Z,4.10
2022-10-01T19:28:53.637Z,3.95
2022-10-01T19:31:58.413Z,4.00
2022-10-01T19:34:35.693Z,3.78
2022-10-01T19:37:25.531Z,3.88
2022-10-01T19:39:58.052Z,3.80
2022-10-01T19:42:33.608Z,4.28
2022-10-01T19:45:25.976Z,4.50
2022-10-01T19:48:20.052Z,4.03
2022-10-01T19:51:07.562Z,4.20
2022-10-01T19:53:39.284Z,4.10
2022-10-01T19:56:10.602Z,4.05
2022-10-01T19:58:37.470Z,4.13
2022-10-01T20:01:04.948Z,5.63
2022-10-01T20:03:39.992Z,5.25
2022-10-01T20:06:23.653Z,4.70
2022-10-01T20:09:30.963Z,4.07
2022-10-01T20:12:11.164Z,4.72
2022-10-01T20:15:16.303Z,4.07
2022-10-01T20:18:13.284Z,3.90
2022-10-01T20:21:03.418Z,4.47
2022-10-01T20:23:43.443Z,4.05
2022-10-01T20:26:21.315Z,3.28
2022-10-01T20:29:38.006Z,4.22
2022-10-01T20:32:21.751Z,4.05
2022-10-01T20:35:07.666Z,4.10
2022-10-01T20:37:56.371Z,2.72
2022-10-01T20:40:38.269Z,3.47
2022-10-01T20:43:17.386Z,3.65
2022-10-01T20:45:47.643Z,4.30
2022-10-01T20:48:22.288Z,3.53
2022-10-01T20:51:00.742Z,4.13
2022-10-01T20:54:11.401Z,3.90
2022-10-01T20:56:44.622Z,3.85
2022-10-01T20:59:25.405Z,3.85
2022-10-01T21:02:02.997Z,4.23
2022-10-01T21:04:40.953Z,4.40
2022-10-01T21:07:43.611Z,3.97
2022-10-01T21:10:46.033Z,4.43
2022-10-01T21:13:32.255Z,3.97
2022-10-01T21:16:15.878Z,4.03
2022-10-01T21:19:26.444Z,4.47
2022-10-01T21:22:32.160Z,4.20
2022-10-01T21:25:13.050Z,4.55
2022-10-01T21:28:05.037Z,4.63
2022-10-01T21:31:21.663Z,4.33
2022-10-01T21:34:15.004Z,4.75
2022-10-01T21:37:05.288Z,4.53
2022-10-01T21:40:11.244Z,5.10
2022-10-01T21:42:55.853Z,5.10
2022-10-01T21:45:50.697Z,4.60
2022-10-01T21:48:46.822Z,5.55
2022-10-01T21:52:17.115Z,5.60
2022-10-01T21:55:21.064Z,4.95
2022-10-01T21:58:02.303Z,5.30
2022-10-01T22:00:30.529Z,4.90
2022-10-01T22:03:34.171Z,5.53
2022-10-01T22:06:16.611Z,5.60
2022-10-01T22:09:22.257Z,4.82
2022-10-01T22:11:54.655Z,5.75
2022-10-01T22:14:22.608Z,5.60
2022-10-01T22:17:09.053Z,5.82
2022-10-01T22:19:40.357Z,5.03
2022-10-01T22:22:22.102Z,6.05
2022-10-01T22:24:53.120Z,5.60
2022-10-01T22:27:46.424Z,5.70
2022-10-01T22:30:18.644Z,5.43
2022-10-01T22:33:10.287Z,5.57
2022-10-01T22:35:49.012Z,6.38
2022-10-01T22:38:42.759Z,5.60
2022-10-01T22:41:31.700Z,6.70
2022-10-01T22:43:59.779Z,7.85
2022-10-01T22:46:57.928Z,5.97
2022-10-01T22:50:11.208Z,6.53
2022-10-01T22:53:18.112Z,7.05
2022-10-01T22:55:57.198Z,5.07
2022-10-01T22:59:22.693Z,4.60
2022-10-01T23:02:31.011Z,4.18
2022-10-01T23:05:13.259Z,3.50
2022-10-01T23:08:00.429Z,4.30
2022-10-01T23:10:44.756Z,4.27
2022-10-01T23:13:29.980Z,4.25
2022-10-01T23:16:28.450Z,4.95
2022-10-01T23:19:30.006Z,3.95
2022-10-01T23:22:02.661Z,4.63
2022-10-01T23:24:53.076Z,5.63
2022-10-01T23:28:09.586Z,4.95
2022-10-01T23:31:22.757Z,4.40
2022-10-01T23:34:00.333Z,4.80
2022-10-01T23:36:39.087Z,4.75
2022-10-01T23:39:48.953Z,4.63
2022-10-01T23:42:46.253Z,3.90
2022-10-01T23:45:28.959Z,3.95
2022-10-01T23:48:12.892Z,3.65
2022-10-01T23:51:00.272Z,3.55
2022-10-01T23:53:50.663Z,3.60
2022-10-01T23:56:48.621Z,3.92
2022-10-01T23:59:59.241Z,3.55
